Terminal Aerodrome Forecast
Issued by NWS Twin Cities, MN

Home | Current Version | Previous Version | Text Only | Print | Product List | Glossary On
Versions: 1 2 3 4 5 6 7 8 9 10 11 12 13 14 15 16
000
FTUS43 KMPX 011730
TAFSTC
TAF
KSTC 011730Z 0118/0218 24007KT P6SM VCSH FEW060 BKN100
     FM012300 20005KT P6SM VCSH SCT060 BKN080
      TEMPO 0123/0202 3SM TSRA OVC050CB
     FM020300 18004KT P6SM SCT100=

USA.gov is the U.S. government's official web portal to all federal, state and local government web resources and services.